createdAt,value
2023-02-14T00:01:57.646Z,89.84
2023-02-14T00:04:44.766Z,91.08
2023-02-14T00:07:31.082Z,90.07
2023-02-14T00:10:16.430Z,90.02
2023-02-14T00:13:01.552Z,90.07
2023-02-14T00:15:46.390Z,89.45
2023-02-14T00:18:50.106Z,89.45
2023-02-14T00:21:37.436Z,88.95
2023-02-14T00:24:25.364Z,89.86
2023-02-14T00:27:10.755Z,89.92
2023-02-14T00:29:58.540Z,91.78
2023-02-14T00:32:43.421Z,91.47
2023-02-14T00:35:28.808Z,91.18
2023-02-14T00:38:13.672Z,90.23
2023-02-14T00:40:59.240Z,90.56
2023-02-14T00:43:44.550Z,90.61
2023-02-14T00:46:29.737Z,89.27
2023-02-14T00:49:15.300Z,90.33
2023-02-14T00:52:00.141Z,91.94
2023-02-14T00:54:45.769Z,91.81
2023-02-14T00:57:30.718Z,91.08
2023-02-14T01:00:16.316Z,91.57
2023-02-14T01:03:01.467Z,90.71
2023-02-14T01:05:48.101Z,91.77
2023-02-14T01:08:33.469Z,91.91
2023-02-14T01:11:21.817Z,91.81
2023-02-14T01:14:06.724Z,92.29
2023-02-14T01:16:51.962Z,91.60
2023-02-14T01:19:38.206Z,92.65
2023-02-14T01:22:23.347Z,91.36
2023-02-14T01:25:08.291Z,92.90
2023-02-14T01:27:53.372Z,92.25
2023-02-14T01:30:39.103Z,91.61
2023-02-14T01:33:24.270Z,90.87
2023-02-14T01:36:19.659Z,90.21
2023-02-14T01:39:12.230Z,90.02
2023-02-14T01:41:57.824Z,90.51
2023-02-14T01:45:05.196Z,89.85
2023-02-14T01:47:54.202Z,90.03
2023-02-14T01:50:42.621Z,89.83
2023-02-14T01:53:28.988Z,89.75
2023-02-14T01:56:21.024Z,89.33
2023-02-14T01:59:10.072Z,89.24
2023-02-14T02:01:55.856Z,89.82
2023-02-14T02:04:46.196Z,89.61
2023-02-14T02:07:31.712Z,89.54
2023-02-14T02:10:17.436Z,89.58
2023-02-14T02:13:06.465Z,89.37
2023-02-14T02:16:19.493Z,89.61
2023-02-14T02:19:23.714Z,89.50
2023-02-14T02:22:30.496Z,89.60
2023-02-14T02:25:50.473Z,89.15
2023-02-14T02:29:08.199Z,89.83
2023-02-14T02:32:32.048Z,89.36
2023-02-14T02:35:41.710Z,89.16
2023-02-14T02:38:45.363Z,89.20
2023-02-14T02:41:48.353Z,89.28
2023-02-14T02:44:42.307Z,89.36
2023-02-14T02:47:53.436Z,89.07
2023-02-14T02:51:02.795Z,88.33
2023-02-14T02:53:55.148Z,89.57
2023-02-14T02:56:53.707Z,87.15
2023-02-14T02:59:43.680Z,90.65
2023-02-14T03:02:33.190Z,89.46
2023-02-14T03:05:18.690Z,91.05
2023-02-14T03:08:05.131Z,90.44
2023-02-14T03:10:49.957Z,90.35
2023-02-14T03:13:48.985Z,89.06
2023-02-14T03:17:08.051Z,89.37
2023-02-14T03:20:16.619Z,89.75
2023-02-14T03:23:30.223Z,89.43
2023-02-14T03:26:20.159Z,89.10
2023-02-14T03:29:31.294Z,89.45
2023-02-14T03:32:31.169Z,88.99
2023-02-14T03:35:31.059Z,89.10
2023-02-14T03:38:30.880Z,89.11
2023-02-14T03:41:22.975Z,88.81
2023-02-14T03:44:11.303Z,88.89
2023-02-14T03:47:02.993Z,88.70
2023-02-14T03:49:53.300Z,88.59
2023-02-14T03:52:40.009Z,87.12
2023-02-14T03:55:35.976Z,89.43
2023-02-14T03:58:30.610Z,89.75
2023-02-14T04:01:23.130Z,89.29
2023-02-14T04:04:10.214Z,89.15
2023-02-14T04:06:55.748Z,88.92
2023-02-14T04:09:40.766Z,88.61
2023-02-14T04:12:37.222Z,89.17
2023-02-14T04:15:22.549Z,89.19
2023-02-14T04:18:27.474Z,89.08
2023-02-14T04:21:12.561Z,88.88
2023-02-14T04:23:57.396Z,88.33
2023-02-14T04:26:53.887Z,89.25
2023-02-14T04:29:48.175Z,88.97
2023-02-14T04:32:32.839Z,88.94
2023-02-14T04:35:18.238Z,89.10
2023-02-14T04:38:04.629Z,88.57
2023-02-14T04:40:50.253Z,88.62
2023-02-14T04:43:35.858Z,89.11
2023-02-14T04:46:20.861Z,89.07
2023-02-14T04:49:06.171Z,89.11
2023-02-14T04:51:51.037Z,89.04
2023-02-14T04:54:36.135Z,89.05
2023-02-14T04:57:20.831Z,88.63
2023-02-14T05:00:07.051Z,88.54
2023-02-14T05:02:52.313Z,89.38
2023-02-14T05:05:38.243Z,88.77
2023-02-14T05:08:23.269Z,89.18
2023-02-14T05:11:08.793Z,89.35
2023-02-14T05:13:54.082Z,89.22
2023-02-14T05:16:39.358Z,89.08
2023-02-14T05:19:24.975Z,88.71
2023-02-14T05:22:10.244Z,89.56
2023-02-14T05:24:54.995Z,88.35
2023-02-14T05:27:39.831Z,90.12
2023-02-14T05:30:27.817Z,90.31
2023-02-14T05:33:13.309Z,88.88
2023-02-14T05:36:00.967Z,88.98
2023-02-14T05:38:45.957Z,89.86
2023-02-14T05:41:31.175Z,89.76
2023-02-14T05:44:16.026Z,88.95
2023-02-14T05:47:00.913Z,89.08
2023-02-14T05:49:46.064Z,88.82
2023-02-14T05:52:30.813Z,89.29
2023-02-14T05:55:16.150Z,89.06
2023-02-14T05:58:01.164Z,88.88
2023-02-14T06:00:46.221Z,88.71
2023-02-14T06:03:31.354Z,88.94
2023-02-14T06:06:16.504Z,88.44
2023-02-14T06:09:01.209Z,88.69
2023-02-14T06:11:46.480Z,88.73
2023-02-14T06:14:31.339Z,88.52
2023-02-14T06:17:16.551Z,89.04
2023-02-14T06:20:02.204Z,88.38
2023-02-14T06:22:47.190Z,87.41
2023-02-14T06:25:32.825Z,88.72
2023-02-14T06:28:18.157Z,88.89
2023-02-14T06:31:03.454Z,88.31
2023-02-14T06:33:48.615Z,89.31
2023-02-14T06:36:33.863Z,88.92
2023-02-14T06:39:19.058Z,88.90
2023-02-14T06:42:04.314Z,89.28
2023-02-14T06:44:49.119Z,89.30
2023-02-14T06:47:35.253Z,89.60
2023-02-14T06:50:19.986Z,89.08
2023-02-14T06:53:06.295Z,88.74
2023-02-14T06:55:51.446Z,88.85
2023-02-14T06:58:36.641Z,88.75
2023-02-14T07:01:22.108Z,88.70
2023-02-14T07:04:07.331Z,89.02
2023-02-14T07:06:52.577Z,88.85
2023-02-14T07:09:37.440Z,88.20
2023-02-14T07:12:22.503Z,88.95
2023-02-14T07:15:09.522Z,89.08
2023-02-14T07:17:54.831Z,89.11
2023-02-14T07:20:39.871Z,88.93
2023-02-14T07:23:25.153Z,88.89
2023-02-14T07:26:10.197Z,89.55
2023-02-14T07:28:55.633Z,91.48
2023-02-14T07:31:40.621Z,91.29
2023-02-14T07:34:27.446Z,90.76
2023-02-14T07:37:12.306Z,91.11
2023-02-14T07:39:57.230Z,90.64
2023-02-14T07:42:43.381Z,92.03
2023-02-14T07:45:28.188Z,90.88
2023-02-14T07:48:13.391Z,91.55
2023-02-14T07:50:58.569Z,90.97
2023-02-14T07:53:44.296Z,91.97
2023-02-14T07:56:29.575Z,90.95
2023-02-14T07:59:14.844Z,90.65
2023-02-14T08:01:59.676Z,91.52
2023-02-14T08:04:44.700Z,92.17
2023-02-14T08:07:29.591Z,90.20
2023-02-14T08:10:15.503Z,90.05
2023-02-14T08:13:00.816Z,90.47
2023-02-14T08:16:04.601Z,89.98
2023-02-14T08:18:49.653Z,89.78
2023-02-14T08:21:34.564Z,90.47
2023-02-14T08:24:19.604Z,90.56
2023-02-14T08:27:04.672Z,91.07
2023-02-14T08:29:49.543Z,91.04
2023-02-14T08:32:34.752Z,91.89
2023-02-14T08:35:19.931Z,91.38
2023-02-14T08:38:05.225Z,91.06
2023-02-14T08:40:50.529Z,91.90
2023-02-14T08:43:35.279Z,92.07
2023-02-14T08:46:20.353Z,91.31
2023-02-14T08:49:05.176Z,91.74
2023-02-14T08:51:50.146Z,90.02
2023-02-14T08:54:35.297Z,90.47
2023-02-14T08:57:20.562Z,90.86
2023-02-14T09:00:06.959Z,91.25
2023-02-14T09:02:53.124Z,90.55
2023-02-14T09:05:38.482Z,90.60
2023-02-14T09:08:23.332Z,89.60
2023-02-14T09:11:10.161Z,89.35
2023-02-14T09:13:55.884Z,89.35
2023-02-14T09:16:44.067Z,88.14
2023-02-14T09:19:28.925Z,87.44
2023-02-14T09:22:14.183Z,87.61
2023-02-14T09:24:59.340Z,87.11
2023-02-14T09:27:44.395Z,87.34
2023-02-14T09:30:29.305Z,86.31
2023-02-14T09:33:14.974Z,85.78
2023-02-14T09:36:18.861Z,86.41
2023-02-14T09:39:04.067Z,86.63
2023-02-14T09:42:15.804Z,86.76
2023-02-14T09:45:05.073Z,87.75
2023-02-14T09:48:08.397Z,88.37
2023-02-14T09:51:00.106Z,87.49
2023-02-14T09:54:09.232Z,87.36
2023-02-14T09:57:13.857Z,86.85
2023-02-14T10:00:16.738Z,86.66
2023-02-14T10:03:24.583Z,87.96
2023-02-14T10:06:15.795Z,87.73
2023-02-14T10:09:22.855Z,87.84
2023-02-14T10:12:19.469Z,87.20
2023-02-14T10:15:14.077Z,87.50
2023-02-14T10:18:09.806Z,86.62
2023-02-14T10:20:59.706Z,86.81
2023-02-14T10:23:57.571Z,85.97
2023-02-14T10:26:42.420Z,84.43
2023-02-14T10:29:28.178Z,83.79
2023-02-14T10:32:15.021Z,84.07
2023-02-14T10:35:06.237Z,83.00
2023-02-14T10:38:30.446Z,82.11
2023-02-14T10:41:48.393Z,80.39
2023-02-14T10:44:42.414Z,81.28
2023-02-14T10:47:54.654Z,77.92
2023-02-14T10:50:48.500Z,78.97
2023-02-14T10:54:01.841Z,78.91
2023-02-14T10:56:58.182Z,78.09
2023-02-14T11:00:01.236Z,77.15
2023-02-14T11:02:50.728Z,76.61
2023-02-14T11:05:40.476Z,76.32
2023-02-14T11:08:33.057Z,74.90
2023-02-14T11:11:37.169Z,75.65
2023-02-14T11:14:28.526Z,73.70
2023-02-14T11:17:31.429Z,72.28
2023-02-14T11:20:22.513Z,72.67
2023-02-14T11:23:21.559Z,71.73
2023-02-14T11:26:12.386Z,71.99
2023-02-14T11:29:00.962Z,68.63
2023-02-14T11:31:46.135Z,70.25
2023-02-14T11:35:05.690Z,68.36
2023-02-14T11:37:53.428Z,68.47
2023-02-14T11:40:40.280Z,68.10
2023-02-14T11:43:36.448Z,66.47
2023-02-14T11:46:21.338Z,65.97
2023-02-14T11:49:24.638Z,65.94
2023-02-14T11:52:11.648Z,66.82
2023-02-14T11:54:57.562Z,64.68
2023-02-14T11:57:42.691Z,64.51
2023-02-14T12:00:34.081Z,64.04
2023-02-14T12:03:19.814Z,63.67
2023-02-14T12:06:06.584Z,63.18
2023-02-14T12:08:52.170Z,62.10
2023-02-14T12:11:37.661Z,61.55
2023-02-14T12:14:24.334Z,60.97
2023-02-14T12:17:29.235Z,60.04
2023-02-14T12:20:17.272Z,59.66
2023-02-14T12:23:15.069Z,58.72
2023-02-14T12:26:14.429Z,58.42
2023-02-14T12:29:26.287Z,58.70
2023-02-14T12:32:33.017Z,60.82
2023-02-14T12:35:41.004Z,60.18
2023-02-14T12:39:05.024Z,60.44
2023-02-14T12:42:28.211Z,61.15
2023-02-14T12:45:32.180Z,60.22
2023-02-14T12:48:38.858Z,60.41
2023-02-14T12:51:34.471Z,60.88
2023-02-14T12:54:46.863Z,60.28
2023-02-14T12:57:54.759Z,59.00
2023-02-14T13:00:59.433Z,59.19
2023-02-14T13:04:03.847Z,59.31
2023-02-14T13:06:57.400Z,57.93
2023-02-14T13:10:12.505Z,57.61
2023-02-14T13:13:48.183Z,58.69
2023-02-14T13:16:33.680Z,57.94
2023-02-14T13:19:43.285Z,57.06
2023-02-14T13:22:31.160Z,56.46
2023-02-14T13:25:33.391Z,56.40
2023-02-14T13:28:19.978Z,58.72
2023-02-14T13:31:05.887Z,57.65
2023-02-14T13:33:56.673Z,55.60
2023-02-14T13:36:44.078Z,56.60
2023-02-14T13:39:38.676Z,55.53
2023-02-14T13:42:52.960Z,53.40
2023-02-14T13:45:41.898Z,54.19
2023-02-14T13:48:29.344Z,55.95
2023-02-14T13:51:14.645Z,62.59
2023-02-14T13:54:00.359Z,66.61
2023-02-14T13:56:45.361Z,69.53
2023-02-14T13:59:36.381Z,71.89
2023-02-14T14:02:29.831Z,72.80
2023-02-14T14:05:30.928Z,74.55
2023-02-14T14:08:26.677Z,74.82
2023-02-14T14:11:11.969Z,75.89
2023-02-14T14:14:02.061Z,76.37
2023-02-14T14:16:58.798Z,76.76
2023-02-14T14:19:46.228Z,76.40
2023-02-14T14:22:31.861Z,77.54
2023-02-14T14:25:37.781Z,77.62
2023-02-14T14:28:25.793Z,77.47
2023-02-14T14:31:13.539Z,77.83
2023-02-14T14:34:01.939Z,78.33
2023-02-14T14:36:47.229Z,78.31
2023-02-14T14:39:34.555Z,78.51
2023-02-14T14:42:22.020Z,78.46
2023-02-14T14:45:19.491Z,79.13
2023-02-14T14:48:12.576Z,78.89
2023-02-14T14:50:59.105Z,78.76
2023-02-14T14:53:51.355Z,79.14
2023-02-14T14:56:50.212Z,79.54
2023-02-14T14:59:40.487Z,79.59
2023-02-14T15:02:27.836Z,79.54
2023-02-14T15:05:27.407Z,79.70
2023-02-14T15:08:35.979Z,80.35
2023-02-14T15:11:47.177Z,79.90
2023-02-14T15:14:36.257Z,80.14
2023-02-14T15:17:27.108Z,80.48
2023-02-14T15:20:17.658Z,80.42
2023-02-14T15:23:05.234Z,80.71
2023-02-14T15:25:51.789Z,80.59
2023-02-14T15:28:38.480Z,81.50
2023-02-14T15:31:27.938Z,81.46
2023-02-14T15:34:14.640Z,81.39
2023-02-14T15:37:05.940Z,81.52
2023-02-14T15:39:56.827Z,81.13
2023-02-14T15:42:44.587Z,81.84
2023-02-14T15:45:31.234Z,82.19
2023-02-14T15:48:22.144Z,82.90
2023-02-14T15:51:15.576Z,83.03
2023-02-14T15:54:03.751Z,83.00
2023-02-14T15:56:52.491Z,82.82
2023-02-14T15:59:42.803Z,82.73
2023-02-14T16:02:33.262Z,82.99
2023-02-14T16:05:20.897Z,83.78
2023-02-14T16:08:22.909Z,84.35
2023-02-14T16:11:40.706Z,84.69
2023-02-14T16:14:35.803Z,83.35
2023-02-14T16:17:32.617Z,84.12
2023-02-14T16:20:21.511Z,84.82
2023-02-14T16:23:25.701Z,85.21
2023-02-14T16:26:11.885Z,85.28
2023-02-14T16:28:56.722Z,85.42
2023-02-14T16:35:00.406Z,85.91
2023-02-14T16:37:47.324Z,86.41
2023-02-14T16:40:32.328Z,86.19
2023-02-14T16:43:18.976Z,86.12
2023-02-14T16:46:03.923Z,86.88
2023-02-14T16:48:53.027Z,86.96
2023-02-14T16:51:43.121Z,87.35
2023-02-14T16:54:28.485Z,87.01
2023-02-14T16:57:20.601Z,87.11
2023-02-14T17:00:07.141Z,87.19
2023-02-14T17:02:53.971Z,87.33
2023-02-14T17:05:42.017Z,87.51
2023-02-14T17:08:28.166Z,87.33
2023-02-14T17:11:13.488Z,87.81
2023-02-14T17:13:58.633Z,87.61
2023-02-14T17:16:43.866Z,87.25
2023-02-14T17:19:28.982Z,87.82
2023-02-14T17:22:14.592Z,88.19
2023-02-14T17:24:59.611Z,88.11
2023-02-14T17:27:46.186Z,88.20
2023-02-14T17:30:31.489Z,88.44
2023-02-14T17:33:16.539Z,87.77
2023-02-14T17:36:13.129Z,87.80
2023-02-14T17:38:57.998Z,87.98
2023-02-14T17:41:43.295Z,88.30
2023-02-14T17:44:32.873Z,87.74
2023-02-14T17:47:18.356Z,87.98
2023-02-14T17:50:04.153Z,87.96
2023-02-14T17:52:53.597Z,88.33
2023-02-14T17:55:38.966Z,87.90
2023-02-14T17:58:26.425Z,87.46
2023-02-14T18:01:12.699Z,87.29
2023-02-14T18:03:59.199Z,87.45
2023-02-14T18:06:45.121Z,88.46
2023-02-14T18:09:30.332Z,88.18
2023-02-14T18:12:15.982Z,88.29
2023-02-14T18:15:00.801Z,88.58
2023-02-14T18:17:49.738Z,87.71
2023-02-14T18:20:35.064Z,88.73
2023-02-14T18:23:22.082Z,88.00
2023-02-14T18:26:11.878Z,88.12
2023-02-14T18:28:59.693Z,87.53
2023-02-14T18:31:45.370Z,88.24
2023-02-14T18:34:34.016Z,88.14
2023-02-14T18:37:21.422Z,87.85
2023-02-14T18:40:11.174Z,88.55
2023-02-14T18:42:56.145Z,88.22
2023-02-14T18:45:41.020Z,88.58
2023-02-14T18:48:27.629Z,88.42
2023-02-14T18:51:34.575Z,89.25
2023-02-14T18:54:19.794Z,88.46
2023-02-14T18:57:04.546Z,88.25
2023-02-14T18:59:49.561Z,87.05
2023-02-14T19:02:36.028Z,87.28
2023-02-14T19:05:21.253Z,87.91
2023-02-14T19:08:08.512Z,87.90
2023-02-14T19:10:55.124Z,88.58
2023-02-14T19:13:46.348Z,88.90
2023-02-14T19:16:33.665Z,88.17
2023-02-14T19:19:19.819Z,88.68
2023-02-14T19:22:07.659Z,87.70
2023-02-14T19:24:54.015Z,87.52
2023-02-14T19:27:40.433Z,87.16
2023-02-14T19:30:26.881Z,86.99
2023-02-14T19:33:11.864Z,87.17
2023-02-14T19:36:02.938Z,86.64
2023-02-14T19:38:53.276Z,87.03
2023-02-14T19:41:38.956Z,86.54
2023-02-14T19:44:25.723Z,87.27
2023-02-14T19:47:26.871Z,86.70
2023-02-14T19:50:17.054Z,86.27
2023-02-14T19:53:02.512Z,86.84
2023-02-14T19:55:54.175Z,86.57
2023-02-14T19:58:45.190Z,86.16
2023-02-14T20:01:33.374Z,87.10
2023-02-14T20:04:27.758Z,87.67
2023-02-14T20:07:16.045Z,87.39
2023-02-14T20:10:01.476Z,86.87
2023-02-14T20:12:46.773Z,87.13
2023-02-14T20:15:35.129Z,86.88
2023-02-14T20:18:20.417Z,87.13
2023-02-14T20:21:05.545Z,86.51
2023-02-14T20:23:52.735Z,87.22
2023-02-14T20:26:43.065Z,86.81
2023-02-14T20:29:32.412Z,86.40
2023-02-14T20:32:19.015Z,85.49
2023-02-14T20:35:06.184Z,86.40
2023-02-14T20:37:52.415Z,86.50
2023-02-14T20:40:39.952Z,87.51
2023-02-14T20:43:26.306Z,88.10
2023-02-14T20:46:14.495Z,88.98
2023-02-14T20:48:59.856Z,90.41
2023-02-14T20:51:47.953Z,90.57
2023-02-14T20:54:41.975Z,90.23
2023-02-14T20:57:30.748Z,91.24
2023-02-14T21:00:20.085Z,90.90
2023-02-14T21:03:06.527Z,91.25
2023-02-14T21:05:51.522Z,91.19
2023-02-14T21:08:37.383Z,91.35
2023-02-14T21:11:24.181Z,91.17
2023-02-14T21:14:12.281Z,91.00
2023-02-14T21:16:57.445Z,91.89
2023-02-14T21:19:42.872Z,91.51
2023-02-14T21:22:27.856Z,91.19
2023-02-14T21:25:15.712Z,90.46
2023-02-14T21:28:01.296Z,89.39
2023-02-14T21:30:46.362Z,89.45
2023-02-14T21:33:35.640Z,90.17
2023-02-14T21:36:22.891Z,89.23
2023-02-14T21:39:09.643Z,89.01
2023-02-14T21:41:56.224Z,88.77
2023-02-14T21:44:59.726Z,88.35
2023-02-14T21:48:04.982Z,87.34
2023-02-14T21:50:49.977Z,86.96
2023-02-14T21:53:35.119Z,86.75
2023-02-14T21:56:22.062Z,87.58
2023-02-14T21:59:07.501Z,89.89
2023-02-14T22:01:53.439Z,89.53
2023-02-14T22:04:40.805Z,88.43
2023-02-14T22:07:29.093Z,88.28
2023-02-14T22:10:13.964Z,87.35
2023-02-14T22:12:58.626Z,87.61
2023-02-14T22:15:43.468Z,87.50
2023-02-14T22:18:28.948Z,87.28
2023-02-14T22:21:17.698Z,88.83
2023-02-14T22:24:03.802Z,88.81
2023-02-14T22:26:48.907Z,90.25
2023-02-14T22:29:33.937Z,89.21
2023-02-14T22:32:20.210Z,89.55
2023-02-14T22:35:05.884Z,88.29
2023-02-14T22:37:51.023Z,88.33
2023-02-14T22:40:36.285Z,88.84
2023-02-14T22:43:22.414Z,90.27
2023-02-14T22:46:10.249Z,90.40
2023-02-14T22:48:56.354Z,90.83
2023-02-14T22:51:42.157Z,90.23
2023-02-14T22:54:27.337Z,90.71
2023-02-14T22:57:12.051Z,91.04
2023-02-14T22:59:57.920Z,91.96
2023-02-14T23:02:42.706Z,92.49
2023-02-14T23:05:27.680Z,93.02
2023-02-14T23:08:12.637Z,92.45
2023-02-14T23:10:57.446Z,92.99
2023-02-14T23:14:01.860Z,91.61
2023-02-14T23:17:05.673Z,91.49
2023-02-14T23:20:09.435Z,91.32
2023-02-14T23:22:54.580Z,92.03
2023-02-14T23:25:43.396Z,92.28
2023-02-14T23:28:28.301Z,91.89
2023-02-14T23:31:13.231Z,92.52
2023-02-14T23:33:58.020Z,93.19
2023-02-14T23:36:43.049Z,92.67
2023-02-14T23:39:28.467Z,91.19
2023-02-14T23:42:14.713Z,92.65
2023-02-14T23:45:20.181Z,92.92
2023-02-14T23:48:05.480Z,93.79
2023-02-14T23:50:51.455Z,91.79
2023-02-14T23:53:36.456Z,92.58
2023-02-14T23:56:21.477Z,92.55
2023-02-14T23:59:07.673Z,93.09
